createdAt,value
2022-12-26T00:01:40.843Z,122.97
2022-12-26T00:04:50.780Z,109.93
2022-12-26T00:06:54.364Z,122.18
2022-12-26T00:09:21.353Z,309.52
2022-12-26T00:11:47.811Z,212.88
2022-12-26T00:14:15.047Z,212.13
2022-12-26T00:16:42.393Z,205.25
2022-12-26T00:19:08.954Z,192.88
2022-12-26T00:21:35.540Z,198.77
2022-12-26T00:24:02.181Z,192.32
2022-12-26T00:26:30.155Z,187.85
2022-12-26T00:28:56.687Z,183.43
2022-12-26T00:31:28.380Z,188.07
2022-12-26T00:33:55.207Z,185.85
2022-12-26T00:36:23.860Z,181.38
2022-12-26T00:38:50.411Z,170.73
2022-12-26T00:41:17.243Z,169.88
2022-12-26T00:43:43.779Z,152.18
2022-12-26T00:46:10.464Z,152.75
2022-12-26T00:48:36.995Z,149.48
2022-12-26T00:51:03.607Z,138.70
2022-12-26T00:53:30.109Z,137.77
2022-12-26T00:55:56.728Z,132.30
2022-12-26T00:58:23.273Z,140.63
2022-12-26T01:00:49.804Z,119.68
2022-12-26T01:03:16.431Z,118.00
2022-12-26T01:05:43.956Z,119.47
2022-12-26T01:08:20.380Z,117.28
2022-12-26T01:10:50.685Z,107.65
2022-12-26T01:13:17.242Z,112.10
2022-12-26T01:15:51.047Z,106.82
2022-12-26T01:18:17.679Z,105.75
2022-12-26T01:20:44.133Z,101.38
2022-12-26T01:23:10.636Z,103.63
2022-12-26T01:25:37.088Z,95.60
2022-12-26T01:28:23.563Z,100.38
2022-12-26T01:30:50.048Z,90.00
2022-12-26T01:33:16.793Z,95.40
2022-12-26T01:35:51.148Z,83.75
2022-12-26T01:38:17.708Z,83.35
2022-12-26T01:40:44.243Z,86.63
2022-12-26T01:43:14.384Z,81.63
2022-12-26T01:45:40.877Z,75.53
2022-12-26T01:48:20.103Z,80.70
2022-12-26T01:51:00.868Z,79.38
2022-12-26T01:53:37.926Z,76.35
2022-12-26T01:56:07.392Z,80.65
2022-12-26T01:58:35.879Z,76.82
2022-12-26T02:01:02.829Z,67.88
2022-12-26T02:03:51.731Z,70.43
2022-12-26T02:06:18.179Z,70.93
2022-12-26T02:08:44.653Z,68.15
2022-12-26T02:11:18.487Z,67.25
2022-12-26T02:13:44.988Z,65.65
2022-12-26T02:16:15.118Z,62.80
2022-12-26T02:18:41.659Z,61.90
2022-12-26T02:21:32.974Z,64.28
2022-12-26T02:24:18.953Z,63.78
2022-12-26T02:27:05.733Z,60.42
2022-12-26T02:29:54.040Z,58.97
2022-12-26T02:32:41.616Z,63.35
2022-12-26T02:35:38.960Z,57.13
2022-12-26T02:38:40.801Z,60.55
2022-12-26T02:41:31.876Z,55.15
2022-12-26T02:44:28.479Z,52.83
2022-12-26T02:47:05.462Z,53.92
2022-12-26T02:50:09.920Z,51.97
2022-12-26T02:53:42.829Z,51.22
2022-12-26T02:56:38.581Z,49.08
2022-12-26T02:59:54.076Z,46.30
2022-12-26T03:02:50.480Z,55.75
2022-12-26T03:05:47.779Z,49.78
2022-12-26T03:08:40.036Z,44.75
2022-12-26T03:11:25.160Z,45.42
2022-12-26T03:13:52.105Z,45.58
2022-12-26T03:16:37.090Z,46.00
2022-12-26T03:19:05.532Z,44.70
2022-12-26T03:21:40.404Z,42.58
2022-12-26T03:24:08.365Z,40.67
2022-12-26T03:26:40.605Z,35.55
2022-12-26T03:29:36.407Z,42.33
2022-12-26T03:32:07.970Z,39.55
2022-12-26T03:34:35.060Z,39.20
2022-12-26T03:37:47.718Z,34.45
2022-12-26T03:40:46.291Z,35.97
2022-12-26T03:43:47.187Z,37.38
2022-12-26T03:46:44.639Z,34.67
2022-12-26T03:49:40.130Z,33.30
2022-12-26T03:52:41.594Z,30.80
2022-12-26T03:55:47.310Z,30.27
2022-12-26T03:58:40.691Z,32.20
2022-12-26T04:01:28.906Z,29.63
2022-12-26T04:04:14.012Z,29.23
2022-12-26T04:07:07.582Z,29.35
2022-12-26T04:09:56.810Z,27.17
2022-12-26T04:12:42.797Z,27.27
2022-12-26T04:15:51.072Z,27.45
2022-12-26T04:18:42.747Z,28.05
2022-12-26T04:21:36.831Z,26.98
2022-12-26T04:24:28.543Z,27.85
2022-12-26T04:27:14.591Z,23.92
2022-12-26T04:29:59.915Z,25.08
2022-12-26T04:32:55.103Z,24.92
2022-12-26T04:35:53.029Z,23.38
2022-12-26T04:38:41.319Z,24.10
2022-12-26T04:41:26.419Z,25.55
2022-12-26T04:44:08.045Z,23.27
2022-12-26T04:46:39.980Z,21.80
2022-12-26T04:49:27.174Z,23.75
2022-12-26T04:51:54.979Z,22.80
2022-12-26T04:54:21.444Z,21.65
2022-12-26T04:56:47.910Z,18.80
2022-12-26T04:59:14.766Z,20.25
2022-12-26T05:01:59.882Z,21.38
2022-12-26T05:04:45.348Z,20.60
2022-12-26T05:07:51.616Z,18.25
2022-12-26T05:10:25.648Z,21.88
2022-12-26T05:15:18.527Z,17.23
2022-12-26T05:18:03.301Z,17.00
2022-12-26T05:20:50.101Z,16.90
2022-12-26T05:23:42.149Z,16.10
2022-12-26T05:26:33.542Z,18.48
2022-12-26T05:29:00.230Z,15.25
2022-12-26T05:31:32.973Z,17.20
2022-12-26T05:34:07.861Z,17.65
2022-12-26T05:36:54.162Z,15.02
2022-12-26T05:39:20.634Z,14.40
2022-12-26T05:41:47.101Z,17.13
2022-12-26T05:44:13.844Z,13.93
2022-12-26T05:46:42.341Z,15.10
2022-12-26T05:49:09.144Z,13.38
2022-12-26T05:51:35.928Z,13.55
2022-12-26T05:54:02.448Z,12.27
2022-12-26T05:56:28.889Z,13.52
2022-12-26T05:58:56.301Z,11.98
2022-12-26T06:01:22.880Z,13.60
2022-12-26T06:03:50.416Z,10.70
2022-12-26T06:06:17.010Z,11.38
2022-12-26T06:08:43.479Z,11.23
2022-12-26T06:11:11.615Z,9.55
2022-12-26T06:13:38.396Z,12.02
2022-12-26T06:16:09.157Z,12.55
2022-12-26T06:18:35.954Z,11.65
2022-12-26T06:21:06.553Z,9.80
2022-12-26T06:23:33.641Z,11.07
2022-12-26T06:26:00.112Z,10.73
2022-12-26T06:28:26.620Z,10.25
2022-12-26T06:30:53.084Z,9.55
2022-12-26T06:33:19.587Z,8.80
2022-12-26T06:35:46.159Z,8.35
2022-12-26T06:38:12.723Z,9.00
2022-12-26T06:40:40.526Z,8.00
2022-12-26T06:43:08.185Z,7.47
2022-12-26T06:45:35.095Z,6.10
2022-12-26T06:48:01.829Z,7.05
2022-12-26T06:50:28.309Z,6.68
2022-12-26T06:52:54.582Z,7.07
2022-12-26T06:55:21.048Z,7.60
2022-12-26T06:57:47.492Z,7.55
2022-12-26T07:00:14.574Z,6.55
2022-12-26T07:02:41.121Z,6.88
2022-12-26T07:05:07.765Z,6.60
2022-12-26T07:07:34.223Z,5.38
2022-12-26T07:10:00.681Z,6.88
2022-12-26T07:12:27.149Z,6.15
2022-12-26T07:14:58.061Z,5.85
2022-12-26T07:17:28.158Z,5.25
2022-12-26T07:19:54.743Z,5.38
2022-12-26T07:22:21.198Z,5.45
2022-12-26T07:24:47.666Z,6.28
2022-12-26T07:27:14.130Z,4.00
2022-12-26T07:29:40.785Z,4.85
2022-12-26T07:32:07.342Z,5.55
2022-12-26T07:34:33.949Z,5.13
2022-12-26T07:37:00.419Z,4.10
2022-12-26T07:39:26.905Z,3.80
2022-12-26T07:41:59.392Z,4.68
2022-12-26T07:44:26.540Z,4.20
2022-12-26T07:46:53.050Z,4.43
2022-12-26T07:49:19.503Z,5.32
2022-12-26T07:51:46.469Z,4.32
2022-12-26T07:54:12.983Z,4.07
2022-12-26T07:56:40.204Z,3.85
2022-12-26T07:59:06.749Z,3.72
2022-12-26T08:01:33.344Z,3.42
2022-12-26T08:03:59.929Z,5.70
2022-12-26T08:06:27.483Z,3.22
2022-12-26T08:08:53.933Z,2.90
2022-12-26T08:11:21.467Z,3.45
2022-12-26T08:13:47.981Z,3.22
2022-12-26T08:16:14.892Z,2.45
2022-12-26T08:18:41.533Z,2.97
2022-12-26T08:21:08.048Z,2.45
2022-12-26T08:23:34.527Z,2.65
2022-12-26T08:26:06.015Z,2.28
2022-12-26T08:28:32.474Z,2.47
2022-12-26T08:30:59.147Z,2.95
2022-12-26T08:33:25.608Z,6.07
2022-12-26T08:35:52.099Z,2.42
2022-12-26T08:38:18.577Z,3.45
2022-12-26T08:40:45.251Z,2.72
2022-12-26T08:43:31.077Z,2.40
2022-12-26T08:46:03.009Z,2.20
2022-12-26T08:48:29.689Z,4.15
2022-12-26T08:51:03.589Z,3.00
2022-12-26T08:53:30.553Z,2.75
2022-12-26T08:55:57.064Z,2.03
2022-12-26T08:58:23.570Z,2.47
2022-12-26T09:00:55.017Z,2.88
2022-12-26T09:03:22.043Z,4.05
2022-12-26T09:05:48.587Z,4.15
2022-12-26T09:08:15.034Z,4.18
2022-12-26T09:10:41.503Z,4.15
2022-12-26T09:13:07.963Z,2.97
2022-12-26T09:15:34.427Z,2.92
2022-12-26T09:18:00.890Z,2.90
2022-12-26T09:20:27.599Z,5.38
2022-12-26T09:22:55.390Z,5.20
2022-12-26T09:25:23.855Z,2.30
2022-12-26T09:27:55.590Z,3.75
2022-12-26T09:30:25.410Z,2.50
2022-12-26T09:32:53.100Z,2.65
2022-12-26T09:35:19.621Z,5.43
2022-12-26T09:37:46.080Z,2.10
2022-12-26T09:40:24.596Z,3.72
2022-12-26T09:43:00.105Z,2.15
2022-12-26T09:45:49.722Z,3.60
2022-12-26T09:48:20.485Z,1.73
2022-12-26T09:50:49.333Z,2.38
2022-12-26T09:53:25.040Z,3.60
2022-12-26T09:55:57.351Z,1.65
2022-12-26T09:58:31.454Z,1.58
2022-12-26T10:01:10.454Z,3.08
2022-12-26T10:03:41.656Z,2.47
2022-12-26T10:06:24.360Z,5.18
2022-12-26T10:09:05.603Z,5.00
2022-12-26T10:11:50.101Z,2.80
2022-12-26T10:14:21.557Z,3.42
2022-12-26T10:16:53.195Z,5.63
2022-12-26T10:19:44.084Z,2.22
2022-12-26T10:22:28.490Z,1.33
2022-12-26T10:27:22.055Z,2.20
2022-12-26T10:29:55.328Z,4.35
2022-12-26T10:32:28.116Z,2.28
2022-12-26T10:34:54.849Z,3.50
2022-12-26T10:37:25.998Z,4.85
2022-12-26T10:40:11.965Z,3.83
2022-12-26T10:42:42.820Z,3.58
2022-12-26T10:45:16.453Z,3.47
2022-12-26T10:47:45.386Z,2.97
2022-12-26T10:50:25.421Z,4.35
2022-12-26T10:52:54.119Z,5.82
2022-12-26T10:55:28.650Z,11.48
2022-12-26T10:57:58.508Z,5.88
2022-12-26T11:00:27.723Z,10.32
2022-12-26T11:03:11.220Z,10.00
2022-12-26T11:08:43.187Z,9.55
2022-12-26T11:11:12.810Z,13.30
2022-12-26T11:13:40.664Z,6.32
2022-12-26T11:16:07.315Z,7.20
2022-12-26T11:18:38.024Z,5.70
2022-12-26T11:21:20.898Z,8.27
2022-12-26T11:23:48.339Z,7.03
2022-12-26T11:26:29.670Z,4.88
2022-12-26T11:29:11.605Z,10.80
2022-12-26T11:31:38.830Z,4.97
2022-12-26T11:34:09.727Z,8.68
2022-12-26T11:36:36.358Z,3.92
2022-12-26T11:39:21.906Z,4.93
2022-12-26T11:41:49.164Z,8.73
2022-12-26T11:44:21.362Z,6.93
2022-12-26T11:47:00.681Z,7.25
2022-12-26T11:49:29.995Z,7.88
2022-12-26T11:51:59.586Z,4.80
2022-12-26T11:54:30.746Z,4.10
2022-12-26T11:57:22.231Z,4.47
2022-12-26T11:59:49.404Z,3.45
2022-12-26T12:02:21.360Z,2.05
2022-12-26T12:04:48.197Z,4.90
2022-12-26T12:07:39.424Z,5.20
2022-12-26T12:10:44.715Z,6.35
2022-12-26T12:13:31.358Z,4.20
2022-12-26T12:16:18.994Z,7.20
2022-12-26T12:18:56.137Z,7.75
2022-12-26T12:21:41.392Z,3.55
2022-12-26T12:24:24.170Z,3.70
2022-12-26T12:27:11.861Z,4.82
2022-12-26T12:29:50.872Z,5.68
2022-12-26T12:32:22.125Z,2.67
2022-12-26T12:35:18.861Z,4.63
2022-12-26T12:38:06.203Z,5.47
2022-12-26T12:40:41.082Z,6.40
2022-12-26T12:43:19.919Z,8.05
2022-12-26T12:45:56.703Z,10.77
2022-12-26T12:48:30.377Z,4.88
2022-12-26T12:51:21.113Z,2.92
2022-12-26T12:53:59.773Z,6.35
2022-12-26T12:56:42.230Z,6.47
2022-12-26T12:59:33.854Z,4.28
2022-12-26T13:02:08.590Z,3.97
2022-12-26T13:04:42.046Z,3.58
2022-12-26T13:07:21.727Z,3.78
2022-12-26T13:09:51.271Z,9.93
2022-12-26T13:12:22.390Z,3.38
2022-12-26T13:15:13.512Z,3.83
2022-12-26T13:17:48.561Z,5.47
2022-12-26T13:20:17.753Z,3.30
2022-12-26T13:23:05.112Z,3.67
2022-12-26T13:25:34.168Z,3.53
2022-12-26T13:28:09.892Z,4.25
2022-12-26T13:30:36.993Z,3.53
2022-12-26T13:33:04.322Z,3.72
2022-12-26T13:35:53.725Z,2.92
2022-12-26T13:38:21.156Z,6.43
2022-12-26T13:41:17.631Z,6.18
2022-12-26T13:44:20.535Z,3.10
2022-12-26T13:46:46.877Z,5.20
2022-12-26T13:49:39.678Z,5.50
2022-12-26T13:52:12.037Z,6.82
2022-12-26T13:55:07.209Z,3.15
2022-12-26T13:57:42.497Z,6.95
2022-12-26T14:00:23.555Z,5.15
2022-12-26T14:03:19.741Z,6.35
2022-12-26T14:06:24.207Z,7.50
2022-12-26T14:09:00.838Z,5.28
2022-12-26T14:11:57.893Z,2.50
2022-12-26T14:14:54.923Z,4.25
2022-12-26T14:17:32.081Z,3.83
2022-12-26T14:20:17.246Z,2.08
2022-12-26T14:23:10.551Z,6.57
2022-12-26T14:25:52.583Z,6.05
2022-12-26T14:28:27.607Z,5.75
2022-12-26T14:31:05.700Z,2.72
2022-12-26T14:33:39.183Z,1.48
2022-12-26T14:36:34.008Z,3.42
2022-12-26T14:39:30.244Z,5.47
2022-12-26T14:42:39.391Z,2.13
2022-12-26T14:45:13.170Z,4.15
2022-12-26T14:47:45.338Z,3.35
2022-12-26T14:50:35.875Z,1.65
2022-12-26T14:53:20.503Z,2.88
2022-12-26T14:55:49.896Z,2.80
2022-12-26T14:58:26.822Z,4.07
2022-12-26T15:00:53.920Z,14.23
2022-12-26T15:04:04.825Z,18.95
2022-12-26T15:06:49.993Z,18.25
2022-12-26T15:09:28.548Z,19.88
2022-12-26T15:12:13.875Z,22.85
2022-12-26T15:14:46.430Z,24.23
2022-12-26T15:17:23.704Z,22.33
2022-12-26T15:20:27.721Z,19.23
2022-12-26T15:23:17.063Z,19.98
2022-12-26T15:25:47.073Z,18.88
2022-12-26T15:28:48.999Z,20.45
2022-12-26T15:31:43.011Z,18.38
2022-12-26T15:34:37.962Z,19.98
2022-12-26T15:37:21.629Z,17.42
2022-12-26T15:40:02.351Z,16.92
2022-12-26T15:42:38.050Z,18.20
2022-12-26T15:45:29.485Z,18.67
2022-12-26T15:48:26.280Z,15.80
2022-12-26T15:51:17.273Z,16.75
2022-12-26T15:53:54.432Z,14.15
2022-12-26T15:56:55.520Z,13.82
2022-12-26T15:59:24.835Z,12.38
2022-12-26T16:01:53.700Z,16.00
2022-12-26T16:04:33.373Z,15.82
2022-12-26T16:07:09.076Z,14.13
2022-12-26T16:09:49.665Z,13.57
2022-12-26T16:12:20.940Z,29.25
2022-12-26T16:14:47.570Z,19.98
2022-12-26T16:17:13.856Z,19.08
2022-12-26T16:19:41.473Z,14.43
2022-12-26T16:22:27.318Z,16.15
2022-12-26T16:24:53.788Z,13.43
2022-12-26T16:27:22.262Z,15.30
2022-12-26T16:30:16.336Z,16.63
2022-12-26T16:32:43.025Z,15.73
2022-12-26T16:35:19.981Z,15.82
2022-12-26T16:37:46.791Z,18.30
2022-12-26T16:40:35.055Z,18.67
2022-12-26T16:43:05.382Z,15.68
2022-12-26T16:45:34.053Z,16.25
2022-12-26T16:48:00.657Z,12.80
2022-12-26T16:50:28.770Z,13.68
2022-12-26T16:53:24.928Z,10.75
2022-12-26T16:55:52.473Z,14.40
2022-12-26T16:58:23.745Z,12.32
2022-12-26T17:01:09.921Z,10.57
2022-12-26T17:04:15.217Z,11.30
2022-12-26T17:06:49.187Z,12.65
2022-12-26T17:09:17.379Z,15.35
2022-12-26T17:11:58.119Z,11.43
2022-12-26T17:14:32.741Z,11.43
2022-12-26T17:17:07.751Z,12.27
2022-12-26T17:19:36.112Z,14.10
2022-12-26T17:22:15.387Z,12.40
2022-12-26T17:24:43.924Z,9.10
2022-12-26T17:27:34.077Z,9.95
2022-12-26T17:30:02.063Z,10.55
2022-12-26T17:32:43.051Z,15.15
2022-12-26T17:35:17.602Z,8.27
2022-12-26T17:37:44.355Z,9.85
2022-12-26T17:40:13.690Z,11.25
2022-12-26T17:42:47.966Z,9.13
2022-12-26T17:45:22.375Z,9.73
2022-12-26T17:47:51.318Z,10.13
2022-12-26T17:50:17.852Z,7.88
2022-12-26T17:52:44.360Z,11.15
2022-12-26T17:55:19.722Z,14.27
2022-12-26T17:57:46.181Z,15.32
2022-12-26T18:00:24.152Z,26.60
2022-12-26T18:02:50.744Z,19.42
2022-12-26T18:05:18.223Z,21.92
2022-12-26T18:07:44.882Z,18.50
2022-12-26T18:10:26.198Z,16.90
2022-12-26T18:12:52.967Z,18.02
2022-12-26T18:15:19.602Z,19.83
2022-12-26T18:17:46.959Z,19.35
2022-12-26T18:20:18.362Z,18.98
2022-12-26T18:22:45.116Z,19.10
2022-12-26T18:25:15.594Z,18.73
2022-12-26T18:27:42.222Z,23.27
2022-12-26T18:30:22.194Z,14.35
2022-12-26T18:32:49.406Z,16.38
2022-12-26T18:35:15.952Z,14.68
2022-12-26T18:37:44.459Z,13.30
2022-12-26T18:40:34.762Z,16.20
2022-12-26T18:43:01.866Z,13.75
2022-12-26T18:45:28.748Z,17.27
2022-12-26T18:47:55.307Z,12.95
2022-12-26T18:50:21.823Z,17.25
2022-12-26T18:52:53.366Z,13.85
2022-12-26T18:55:21.031Z,14.85
2022-12-26T18:57:47.482Z,12.88
2022-12-26T19:00:15.188Z,13.45
2022-12-26T19:02:41.700Z,12.68
2022-12-26T19:05:32.745Z,10.48
2022-12-26T19:07:59.496Z,11.43
2022-12-26T19:10:31.043Z,16.23
2022-12-26T19:13:04.772Z,11.73
2022-12-26T19:15:32.448Z,12.00
2022-12-26T19:17:58.956Z,12.23
2022-12-26T19:20:25.967Z,11.05
2022-12-26T19:22:52.990Z,10.25
2022-12-26T19:25:20.272Z,10.77
2022-12-26T19:27:47.027Z,11.95
2022-12-26T19:30:13.782Z,7.72
2022-12-26T19:32:40.359Z,7.43
2022-12-26T19:35:09.023Z,5.53
2022-12-26T19:37:36.215Z,6.57
2022-12-26T19:40:03.348Z,5.47
2022-12-26T19:42:29.946Z,4.35
2022-12-26T19:44:56.440Z,5.05
2022-12-26T19:47:23.185Z,7.78
2022-12-26T19:49:49.636Z,5.95
2022-12-26T19:52:16.090Z,4.97
2022-12-26T19:54:42.637Z,4.38
2022-12-26T19:57:10.852Z,4.88
2022-12-26T19:59:37.643Z,5.85
2022-12-26T20:02:05.140Z,8.00
2022-12-26T20:04:34.750Z,8.55
2022-12-26T20:07:01.294Z,9.18
2022-12-26T20:09:27.888Z,16.23
2022-12-26T20:11:54.368Z,17.23
2022-12-26T20:14:21.517Z,15.63
2022-12-26T20:17:08.530Z,15.05
2022-12-26T20:19:35.999Z,15.80
2022-12-26T20:22:02.531Z,16.80
2022-12-26T20:24:29.002Z,16.95
2022-12-26T20:26:55.521Z,15.90
2022-12-26T20:29:21.991Z,19.15
2022-12-26T20:31:48.539Z,17.15
2022-12-26T20:34:15.073Z,19.35
2022-12-26T20:36:41.671Z,19.13
2022-12-26T20:39:12.018Z,17.52
2022-12-26T20:41:38.522Z,20.25
2022-12-26T20:44:05.061Z,21.63
2022-12-26T20:46:32.548Z,22.45
2022-12-26T20:48:59.586Z,18.70
2022-12-26T20:51:34.627Z,20.08
2022-12-26T20:54:03.293Z,20.38
2022-12-26T20:56:29.835Z,19.98
2022-12-26T20:58:59.086Z,16.88
2022-12-26T21:01:25.746Z,17.48
2022-12-26T21:03:52.978Z,15.23
2022-12-26T21:06:21.174Z,15.45
2022-12-26T21:08:49.110Z,15.43
2022-12-26T21:11:20.296Z,15.43
2022-12-26T21:13:47.797Z,14.02
2022-12-26T21:16:15.290Z,13.43
2022-12-26T21:18:41.888Z,15.38
2022-12-26T21:21:20.300Z,14.57
2022-12-26T21:23:46.988Z,13.10
2022-12-26T21:26:13.569Z,15.15
2022-12-26T21:28:40.106Z,14.00
2022-12-26T21:31:07.775Z,12.18
2022-12-26T21:33:36.779Z,10.77
2022-12-26T21:36:10.956Z,11.98
2022-12-26T21:38:37.436Z,11.18
2022-12-26T21:41:07.202Z,11.80
2022-12-26T21:43:33.681Z,14.38
2022-12-26T21:46:01.393Z,11.63
2022-12-26T21:48:28.300Z,11.10
2022-12-26T21:50:54.789Z,10.55
2022-12-26T21:53:21.355Z,12.27
2022-12-26T21:55:47.825Z,8.90
2022-12-26T21:58:14.274Z,9.40
2022-12-26T22:00:41.950Z,10.93
2022-12-26T22:03:27.367Z,9.18
2022-12-26T22:05:53.875Z,11.32
2022-12-26T22:08:20.323Z,11.02
2022-12-26T22:11:06.032Z,34.30
2022-12-26T22:13:40.990Z,92.22
2022-12-26T22:16:09.291Z,122.28
2022-12-26T22:18:46.807Z,127.82
2022-12-26T22:21:18.057Z,140.20
2022-12-26T22:23:44.590Z,144.07
2022-12-26T22:26:12.190Z,142.43
2022-12-26T22:28:38.700Z,133.50
2022-12-26T22:31:05.278Z,147.07
2022-12-26T22:33:32.030Z,131.82
2022-12-26T22:36:08.444Z,126.47
2022-12-26T22:38:35.597Z,130.98
2022-12-26T22:41:02.133Z,133.55
2022-12-26T22:43:28.687Z,118.70
2022-12-26T22:45:55.191Z,120.38
2022-12-26T22:48:21.688Z,132.65
2022-12-26T22:50:48.844Z,123.80
2022-12-26T22:53:15.310Z,118.25
2022-12-26T22:55:49.229Z,112.38
2022-12-26T22:58:16.507Z,111.97
2022-12-26T23:00:43.053Z,106.82
2022-12-26T23:03:09.823Z,101.22
2022-12-26T23:05:37.147Z,135.88
2022-12-26T23:08:03.871Z,144.45
2022-12-26T23:10:30.538Z,398.15
2022-12-26T23:12:57.247Z,317.10
2022-12-26T23:15:25.111Z,317.05
2022-12-26T23:18:44.155Z,302.33
2022-12-26T23:21:38.760Z,295.85
2022-12-26T23:26:32.202Z,264.38
2022-12-26T23:29:17.394Z,262.75
2022-12-26T23:31:44.159Z,249.65
2022-12-26T23:34:10.703Z,243.15
2022-12-26T23:36:37.164Z,241.98
2022-12-26T23:39:03.657Z,231.82
2022-12-26T23:41:30.127Z,226.00
2022-12-26T23:43:56.585Z,233.00
2022-12-26T23:46:23.108Z,215.13
2022-12-26T23:48:49.919Z,217.73
2022-12-26T23:51:16.372Z,225.10
2022-12-26T23:53:44.005Z,222.80
2022-12-26T23:56:10.515Z,207.52
2022-12-26T23:58:37.800Z,210.63
